• Join FlightAware (Why Join?)
  • Login
  • US Flag 
08:28AM EDT


 

Airport Tracker/Info


-or-


 

Live Flight TrackerFlight Track Log ✈ N59CW ✈ 26-Sep-2013 ✈ KPIE - KBKV

Flight Track Log - Related Links

Times and Time Zones

All times are in EDT time to prevent confusion due to time zone crossing. See the N59CW flight status page for this flight to view local times or setup timezone preferences in your user account.

Time Position Orientation Groundspeed Altitude Reporting Facility
EDT Latitude Longitude Course Direction KTS MPH feet Rate Location/Type
07:52AM 27.9167 -82.6833 360° North 83 96 400  Level Tampa TRACON
07:52AM 27.9333 -82.6833 360° North 88 101 800 660 Climbing Tampa TRACON
07:53AM 27.9500 -82.7000 319° Northwest 89 102 1,500 660 Climbing Tampa TRACON
07:54AM 27.9833 -82.7000 360° North 91 105 2,200 600 Climbing Tampa TRACON
07:55AM 28.0000 -82.7000 360° North 91 105 2,800 360 Climbing Tampa TRACON
07:56AM 28.0333 -82.7167 336° Northwest 100 115 3,000 60 Climbing Tampa TRACON
07:57AM 28.0667 -82.7167 360° North 140 161 3,000  Level Tampa TRACON
07:58AM 28.1167 -82.7167 360° North 134 154 3,000  Level Tampa TRACON
07:59AM 28.1500 -82.7167 360° North 131 151 3,000  Level Tampa TRACON
08:00AM 28.1833 -82.7000 24° Northeast 130 150 3,000 -60 Level Tampa TRACON
08:01AM 28.2167 -82.7000 360° North 139 160 2,900  Descending Tampa TRACON
08:02AM 28.2667 -82.7000 360° North 132 152 3,000  Climbing Tampa TRACON
08:03AM 28.3000 -82.7000 360° North 134 154 3,000  Level Tampa TRACON
08:04AM 28.3333 -82.7000 360° North 133 153 3,000  Level Tampa TRACON
08:05AM 28.3667 -82.6833 24° Northeast 128 147 3,000 -240 Level Tampa TRACON
08:06AM 28.4000 -82.6833 360° North 133 153 2,600 -360 Descending Tampa TRACON
08:07AM 28.4333 -82.6833 360° North 133 153 2,300 -300 Descending Tampa TRACON
08:08AM 28.4667 -82.6833 360° North 126 145 2,000 -300 Descending Tampa TRACON
08:09AM 28.4833 -82.6333 69° East 147 169 1,800 -60 Descending Tampa TRACON
08:10AM 28.4833 -82.6000 90° East 135 155 1,900 -120 Climbing Tampa TRACON
08:11AM 28.4833 -82.5500 90° East 120 138 1,600 -480 Descending Tampa TRACON
08:12AM 28.4833 -82.5167 90° East 116 133 1,000 -600 Descending Tampa TRACON
08:13AM 28.4833 -82.4833 90° East 111 128 400 -180 Descending Tampa TRACON
08:14AM 28.4667 -82.4500 120° Southeast 89 102 700 300 Climbing Tampa TRACON
08:15AM 28.4500 -82.4333 139° Southeast 93 107 1,100 600 Climbing Tampa TRACON
08:16AM 28.4167 -82.4333 180° South 97 112 1,900 420 Climbing Tampa TRACON
08:17AM 28.4000 -82.4333 180° South 105 121 2,000  Climbing Tampa TRACON
08:18AM 28.4000 -82.4667 270° West 108 124 2,000  Level Tampa TRACON
08:19AM 28.4000 -82.5167 270° West 108 124 2,000  Level Tampa TRACON
08:20AM 28.4000 -82.5333 270° West 110 127 2,000  Level Tampa TRACON
08:21AM 28.4000 -82.5667 270° West 107 123 2,000  Level Tampa TRACON
08:22AM 28.4000 -82.6000 270° West 106 122 2,000  Level Tampa TRACON
08:23AM 28.4000 -82.6333 270° West 100 115 2,000  Level Tampa TRACON
08:24AM 28.4333 -82.6500 336° Northwest 117 135 2,100  Climbing Tampa TRACON
08:25AM 28.4667 -82.6500 360° North 135 155 2,000 -60 Descending Tampa TRACON
08:26AM 28.4667 -82.6167 90° East 145 167 2,000 -60 Level Tampa TRACON
08:27AM 28.4833 -82.5667 69° East 150 173 1,900 -480 Descending Tampa TRACON
08:28AM 28.4833 -82.5333 90° East 125 144 1,100 -660 Descending Tampa TRACON
08:29AM 28.4833 -82.5000 90° East 105 121 600 -300 Descending Tampa TRACON
08:30AM 28.4833 -82.4667 90° East 101 116 500 -60 Descending Tampa TRACON
08:32AM 28.4833 -82.4667 41° Northeast 101 116 500  Level Tampa TRACON